createdAt,value
2018-08-08T00:01:03.178Z,21.90
2018-08-08T00:03:31.722Z,21.90
2018-08-08T00:06:00.213Z,22.00
2018-08-08T00:08:28.766Z,22.00
2018-08-08T00:10:57.217Z,22.10
2018-08-08T00:13:25.674Z,22.10
2018-08-08T00:15:54.192Z,22.10
2018-08-08T00:18:22.694Z,22.20
2018-08-08T00:20:51.231Z,22.20
2018-08-08T00:23:19.797Z,22.20
2018-08-08T00:25:48.281Z,22.20
2018-08-08T00:28:16.759Z,22.20
2018-08-08T00:30:45.246Z,22.20
2018-08-08T00:33:13.789Z,22.20
2018-08-08T00:35:42.295Z,22.20
2018-08-08T00:38:10.833Z,22.30
2018-08-08T00:40:39.350Z,22.30
2018-08-08T00:43:07.819Z,22.30
2018-08-08T00:45:36.382Z,22.30
2018-08-08T00:48:04.930Z,22.30
2018-08-08T00:50:33.511Z,22.30
2018-08-08T00:53:02.053Z,22.30
2018-08-08T00:55:30.546Z,22.30
2018-08-08T00:57:59.017Z,22.30
2018-08-08T01:00:27.517Z,22.30
2018-08-08T01:02:56.010Z,22.30
2018-08-08T01:05:24.540Z,22.30
2018-08-08T01:07:53.077Z,22.30
2018-08-08T01:10:21.555Z,22.30
2018-08-08T01:12:50.061Z,22.30
2018-08-08T01:15:18.585Z,22.30
2018-08-08T01:17:47.100Z,22.30
2018-08-08T01:20:16.893Z,22.20
2018-08-08T01:22:45.722Z,22.20
2018-08-08T01:25:15.522Z,22.20
2018-08-08T01:27:44.250Z,22.20
2018-08-08T01:30:18.300Z,22.30
2018-08-08T01:32:46.813Z,22.30
2018-08-08T01:35:15.408Z,22.30
2018-08-08T01:37:44.309Z,22.30
2018-08-08T01:40:15.208Z,22.30
2018-08-08T01:42:43.864Z,22.30
2018-08-08T01:45:13.651Z,22.30
2018-08-08T01:47:42.149Z,22.30
2018-08-08T01:50:12.318Z,22.30
2018-08-08T01:52:41.129Z,22.30
2018-08-08T01:55:11.853Z,22.30
2018-08-08T01:57:40.320Z,22.30
2018-08-08T02:00:14.285Z,22.20
2018-08-08T02:02:42.911Z,22.20
2018-08-08T02:05:11.714Z,22.20
2018-08-08T02:07:40.552Z,22.20
2018-08-08T02:10:11.458Z,22.20
2018-08-08T02:12:40.225Z,22.20
2018-08-08T02:15:11.413Z,22.20
2018-08-08T02:17:39.877Z,22.20
2018-08-08T02:20:09.678Z,22.20
2018-08-08T02:22:38.718Z,22.20
2018-08-08T02:25:07.781Z,22.20
2018-08-08T02:27:36.373Z,22.20
2018-08-08T02:30:07.783Z,22.20
2018-08-08T02:32:36.225Z,22.20
2018-08-08T02:35:04.965Z,22.20
2018-08-08T02:37:33.569Z,22.20
2018-08-08T02:40:02.141Z,22.30
2018-08-08T02:42:30.621Z,22.30
2018-08-08T02:44:59.190Z,22.20
2018-08-08T02:47:27.639Z,22.20
2018-08-08T02:49:56.155Z,22.20
2018-08-08T02:52:24.761Z,22.20
2018-08-08T02:54:53.223Z,22.20
2018-08-08T02:57:21.782Z,22.20
2018-08-08T02:59:50.318Z,22.10
2018-08-08T03:02:18.814Z,22.10
2018-08-08T03:04:47.302Z,22.10
2018-08-08T03:07:15.882Z,22.10
2018-08-08T03:09:44.416Z,22.20
2018-08-08T03:12:13.016Z,22.20
2018-08-08T03:14:41.590Z,22.10
2018-08-08T03:17:10.080Z,22.10
2018-08-08T03:19:39.143Z,22.10
2018-08-08T03:22:07.606Z,22.10
2018-08-08T03:24:36.093Z,22.10
2018-08-08T03:27:04.571Z,22.10
2018-08-08T03:29:33.165Z,22.10
2018-08-08T03:32:01.709Z,22.10
2018-08-08T03:34:30.344Z,22.00
2018-08-08T03:36:58.894Z,22.00
2018-08-08T03:39:27.430Z,22.00
2018-08-08T03:41:55.902Z,22.00
2018-08-08T03:44:24.424Z,22.00
2018-08-08T03:46:52.902Z,22.00
2018-08-08T03:49:21.752Z,22.00
2018-08-08T03:51:50.277Z,22.00
2018-08-08T03:54:18.766Z,22.00
2018-08-08T03:56:47.265Z,22.00
2018-08-08T03:59:15.842Z,22.00
2018-08-08T04:01:44.298Z,22.00
2018-08-08T04:04:12.788Z,22.00
2018-08-08T04:06:41.317Z,22.10
2018-08-08T04:09:11.064Z,22.10
2018-08-08T04:11:39.685Z,22.10
2018-08-08T04:14:08.373Z,22.10
2018-08-08T04:16:37.509Z,22.20
2018-08-08T04:19:06.062Z,22.20
2018-08-08T04:21:34.910Z,22.20
2018-08-08T04:24:03.788Z,22.20
2018-08-08T04:26:32.285Z,22.30
2018-08-08T04:29:00.742Z,22.30
2018-08-08T04:31:29.265Z,22.30
2018-08-08T04:33:57.781Z,22.40
2018-08-08T04:36:26.298Z,22.40
2018-08-08T04:38:54.765Z,22.40
2018-08-08T04:41:23.217Z,22.50
2018-08-08T04:43:51.778Z,22.50
2018-08-08T04:46:20.270Z,22.60
2018-08-08T04:48:48.722Z,22.60
2018-08-08T04:51:17.246Z,22.70
2018-08-08T04:53:45.700Z,22.80
2018-08-08T04:56:14.253Z,22.80
2018-08-08T04:58:42.749Z,22.90
2018-08-08T05:01:11.258Z,22.90
2018-08-08T05:03:39.770Z,23.00
2018-08-08T05:06:08.318Z,23.10
2018-08-08T05:08:36.778Z,23.10
2018-08-08T05:11:05.253Z,23.20
2018-08-08T05:13:33.833Z,23.30
2018-08-08T05:16:02.336Z,23.30
2018-08-08T05:18:30.893Z,23.40
2018-08-08T05:20:59.444Z,23.40
2018-08-08T05:23:27.929Z,23.50
2018-08-08T05:25:56.401Z,23.50
2018-08-08T05:28:24.949Z,23.60
2018-08-08T05:30:53.479Z,23.70
2018-08-08T05:33:22.001Z,23.70
2018-08-08T05:35:50.517Z,23.80
2018-08-08T05:38:19.021Z,23.90
2018-08-08T05:40:47.585Z,24.00
2018-08-08T05:43:16.161Z,24.00
2018-08-08T05:45:44.688Z,24.00
2018-08-08T05:48:13.264Z,24.10
2018-08-08T05:50:41.809Z,24.10
2018-08-08T05:53:10.342Z,24.20
2018-08-08T05:55:38.822Z,24.20
2018-08-08T05:58:08.380Z,24.30
2018-08-08T06:00:36.897Z,24.40
2018-08-08T06:03:05.534Z,24.50
2018-08-08T06:05:34.126Z,24.50
2018-08-08T06:08:02.644Z,24.70
2018-08-08T06:10:31.129Z,24.80
2018-08-08T06:12:59.677Z,24.80
2018-08-08T06:15:28.143Z,24.90
2018-08-08T06:17:56.613Z,25.00
2018-08-08T06:20:25.153Z,25.10
2018-08-08T06:22:53.673Z,25.20
2018-08-08T06:25:22.244Z,25.20
2018-08-08T06:27:50.818Z,25.30
2018-08-08T06:30:22.589Z,25.40
2018-08-08T06:32:51.829Z,25.50
2018-08-08T06:35:22.501Z,25.60
2018-08-08T06:37:51.309Z,25.70
2018-08-08T06:40:19.834Z,25.70
2018-08-08T06:42:48.379Z,25.80
2018-08-08T06:45:18.372Z,25.90
2018-08-08T06:47:46.943Z,26.10
2018-08-08T06:50:16.173Z,26.10
2018-08-08T06:52:44.749Z,26.20
2018-08-08T06:55:14.656Z,26.30
2018-08-08T06:57:43.164Z,26.50
2018-08-08T07:00:19.593Z,26.50
2018-08-08T07:02:48.103Z,26.60
2018-08-08T07:05:17.605Z,26.70
2018-08-08T07:07:46.685Z,26.90
2018-08-08T07:10:15.261Z,27.00
2018-08-08T07:12:43.833Z,27.10
2018-08-08T07:15:13.867Z,27.20
2018-08-08T07:17:42.361Z,27.30
2018-08-08T07:20:12.251Z,27.40
2018-08-08T07:22:40.902Z,27.50
2018-08-08T07:25:11.472Z,27.60
2018-08-08T07:27:40.451Z,27.70
2018-08-08T07:30:13.556Z,27.80
2018-08-08T07:32:42.237Z,27.90
2018-08-08T07:35:11.357Z,27.90
2018-08-08T07:37:40.778Z,28.10
2018-08-08T07:40:11.030Z,28.20
2018-08-08T07:42:40.436Z,28.20
2018-08-08T07:45:11.992Z,28.30
2018-08-08T07:47:40.517Z,28.40
2018-08-08T07:50:10.453Z,28.50
2018-08-08T07:52:39.144Z,28.60
2018-08-08T07:55:09.185Z,28.60
2018-08-08T07:57:37.689Z,28.70
2018-08-08T08:00:25.796Z,28.80
2018-08-08T08:02:54.812Z,28.90
2018-08-08T08:05:24.514Z,29.00
2018-08-08T08:07:53.236Z,29.00
2018-08-08T08:10:21.778Z,29.00
2018-08-08T08:12:50.334Z,29.10
2018-08-08T08:15:18.809Z,29.20
2018-08-08T08:17:47.333Z,29.30
2018-08-08T08:20:17.074Z,29.40
2018-08-08T08:22:46.641Z,29.50
2018-08-08T08:25:15.337Z,29.60
2018-08-08T08:27:43.802Z,29.70
2018-08-08T08:30:15.118Z,29.70
2018-08-08T08:32:44.326Z,29.80
2018-08-08T08:35:12.815Z,30.00
2018-08-08T08:37:41.387Z,30.10
2018-08-08T08:40:10.771Z,30.30
2018-08-08T08:42:39.434Z,30.50
2018-08-08T08:45:08.102Z,30.50
2018-08-08T08:47:36.673Z,30.40
2018-08-08T08:50:05.683Z,30.40
2018-08-08T08:52:34.192Z,30.40
2018-08-08T08:55:02.754Z,30.30
2018-08-08T08:57:31.261Z,30.30
2018-08-08T08:59:59.771Z,30.30
2018-08-08T09:02:28.318Z,30.30
2018-08-08T09:04:58.911Z,30.40
2018-08-08T09:07:27.500Z,30.40
2018-08-08T09:09:55.913Z,30.50
2018-08-08T09:12:24.426Z,30.60
2018-08-08T09:14:53.021Z,30.70
2018-08-08T09:17:21.461Z,30.80
2018-08-08T09:19:50.033Z,30.80
2018-08-08T09:22:18.547Z,30.90
2018-08-08T09:24:47.003Z,30.80
2018-08-08T09:27:15.461Z,30.70
2018-08-08T09:29:49.177Z,30.50
2018-08-08T09:32:17.758Z,30.20
2018-08-08T09:34:46.233Z,30.10
2018-08-08T09:37:14.765Z,29.90
2018-08-08T09:39:43.223Z,29.70
2018-08-08T09:42:11.759Z,29.60
2018-08-08T09:44:40.297Z,29.50
2018-08-08T09:47:08.797Z,29.40
2018-08-08T09:49:37.252Z,29.30
2018-08-08T09:52:05.745Z,29.30
2018-08-08T09:54:34.269Z,29.20
2018-08-08T09:57:02.775Z,29.20
2018-08-08T09:59:31.313Z,29.20
2018-08-08T10:02:05.075Z,29.20
2018-08-08T10:04:34.853Z,29.30
2018-08-08T10:07:05.129Z,29.40
2018-08-08T10:09:33.681Z,29.40
2018-08-08T10:12:02.197Z,29.40
2018-08-08T10:14:30.873Z,29.50
2018-08-08T10:16:59.377Z,29.60
2018-08-08T10:19:27.889Z,29.70
2018-08-08T10:21:56.357Z,29.80
2018-08-08T10:24:24.905Z,30.00
2018-08-08T10:26:53.530Z,30.20
2018-08-08T10:29:21.965Z,30.40
2018-08-08T10:31:51.437Z,30.50
2018-08-08T10:34:19.954Z,30.70
2018-08-08T10:36:48.425Z,30.90
2018-08-08T10:39:16.934Z,31.10
2018-08-08T10:41:45.446Z,31.20
2018-08-08T10:44:13.936Z,31.40
2018-08-08T10:46:42.441Z,31.60
2018-08-08T10:49:11.031Z,31.70
2018-08-08T10:51:39.477Z,31.70
2018-08-08T10:54:08.001Z,31.70
2018-08-08T10:56:36.554Z,31.70
2018-08-08T10:59:05.070Z,31.80
2018-08-08T11:01:33.589Z,32.00
2018-08-08T11:04:02.087Z,32.10
2018-08-08T11:06:32.012Z,32.40
2018-08-08T11:09:00.560Z,32.60
2018-08-08T11:11:29.094Z,32.80
2018-08-08T11:13:57.559Z,33.00
2018-08-08T11:16:26.084Z,33.10
2018-08-08T11:18:54.621Z,33.10
2018-08-08T11:21:23.079Z,33.10
2018-08-08T11:23:51.583Z,33.10
2018-08-08T11:26:21.107Z,33.10
2018-08-08T11:28:49.649Z,33.40
2018-08-08T11:31:18.398Z,33.70
2018-08-08T11:33:46.909Z,33.80
2018-08-08T11:36:15.397Z,34.00
2018-08-08T11:38:43.945Z,34.10
2018-08-08T11:41:12.653Z,34.20
2018-08-08T11:43:41.253Z,34.30
2018-08-08T11:46:09.781Z,34.40
2018-08-08T11:48:38.309Z,34.50
2018-08-08T11:51:06.989Z,34.50
2018-08-08T11:53:35.505Z,34.50
2018-08-08T11:56:04.069Z,34.50
2018-08-08T11:58:32.545Z,34.50
2018-08-08T12:01:01.058Z,34.50
2018-08-08T12:03:29.738Z,34.50
2018-08-08T12:05:58.731Z,34.50
2018-08-08T12:08:27.129Z,34.60
2018-08-08T12:10:55.647Z,34.50
2018-08-08T12:13:24.113Z,34.50
2018-08-08T12:15:52.613Z,34.60
2018-08-08T12:18:21.137Z,34.60
2018-08-08T12:20:49.580Z,34.60
2018-08-08T12:23:18.103Z,34.50
2018-08-08T12:25:46.606Z,34.40
2018-08-08T12:28:15.384Z,34.20
2018-08-08T12:30:43.853Z,34.20
2018-08-08T12:33:12.401Z,34.10
2018-08-08T12:35:40.958Z,34.00
2018-08-08T12:38:09.737Z,34.00
2018-08-08T12:40:38.402Z,34.10
2018-08-08T12:43:07.035Z,34.10
2018-08-08T12:45:35.588Z,34.00
2018-08-08T12:48:04.502Z,33.90
2018-08-08T12:50:33.014Z,33.80
2018-08-08T12:53:01.498Z,33.60
2018-08-08T12:55:30.062Z,33.60
2018-08-08T12:57:58.532Z,33.50
2018-08-08T13:00:27.048Z,33.50
2018-08-08T13:02:55.565Z,33.40
2018-08-08T13:05:24.108Z,33.20
2018-08-08T13:07:52.597Z,33.10
2018-08-08T13:10:21.673Z,32.90
2018-08-08T13:12:50.156Z,32.90
2018-08-08T13:15:18.629Z,32.90
2018-08-08T13:17:47.467Z,32.80
2018-08-08T13:20:15.986Z,32.70
2018-08-08T13:22:44.940Z,32.70
2018-08-08T13:25:13.474Z,32.70
2018-08-08T13:27:41.945Z,32.70
2018-08-08T13:30:10.462Z,32.70
2018-08-08T13:32:39.005Z,32.80
2018-08-08T13:35:08.043Z,32.70
2018-08-08T13:37:42.780Z,32.70
2018-08-08T13:40:15.760Z,32.70
2018-08-08T13:42:48.996Z,32.80
2018-08-08T13:45:23.015Z,33.00
2018-08-08T13:47:57.224Z,33.20
2018-08-08T13:50:30.997Z,33.40
2018-08-08T13:53:04.372Z,33.50
2018-08-08T13:55:37.836Z,33.60
2018-08-08T13:58:14.672Z,33.60
2018-08-08T14:00:51.438Z,33.60
2018-08-08T14:03:24.895Z,33.60
2018-08-08T14:05:59.085Z,33.70
2018-08-08T14:08:31.879Z,33.70
2018-08-08T14:11:04.695Z,33.70
2018-08-08T14:13:37.561Z,33.60
2018-08-08T14:16:10.207Z,33.50
2018-08-08T14:18:41.918Z,33.50
2018-08-08T14:21:14.671Z,33.50
2018-08-08T14:23:47.700Z,33.40
2018-08-08T14:26:16.338Z,33.40
2018-08-08T14:28:44.797Z,33.40
2018-08-08T14:31:13.373Z,33.40
2018-08-08T14:33:41.847Z,33.30
2018-08-08T14:36:10.380Z,33.30
2018-08-08T14:38:38.945Z,33.30
2018-08-08T14:41:07.868Z,33.30
2018-08-08T14:43:36.314Z,33.30
2018-08-08T14:46:05.379Z,33.30
2018-08-08T14:48:34.462Z,33.30
2018-08-08T14:51:03.287Z,33.30
2018-08-08T14:53:32.194Z,33.30
2018-08-08T14:56:00.794Z,33.10
2018-08-08T14:58:29.585Z,32.90
2018-08-08T15:00:58.170Z,32.80
2018-08-08T15:03:26.714Z,32.60
2018-08-08T15:05:55.180Z,32.40
2018-08-08T15:08:23.703Z,32.20
2018-08-08T15:10:52.213Z,32.10
2018-08-08T15:13:20.777Z,32.00
2018-08-08T15:15:49.281Z,31.90
2018-08-08T15:18:17.741Z,31.90
2018-08-08T15:20:46.281Z,31.80
2018-08-08T15:23:14.865Z,31.80
2018-08-08T15:25:43.324Z,31.80
2018-08-08T15:28:11.801Z,31.80
2018-08-08T15:30:40.353Z,31.80
2018-08-08T15:33:09.769Z,31.80
2018-08-08T15:35:38.295Z,31.80
2018-08-08T15:38:06.845Z,31.70
2018-08-08T15:40:35.341Z,31.60
2018-08-08T15:43:03.911Z,31.60
2018-08-08T15:45:32.427Z,31.50
2018-08-08T15:48:00.929Z,31.40
2018-08-08T15:50:29.389Z,31.30
2018-08-08T15:52:57.941Z,31.30
2018-08-08T15:55:26.501Z,31.20
2018-08-08T15:57:54.953Z,31.20
2018-08-08T16:00:23.509Z,31.20
2018-08-08T16:02:51.999Z,31.20
2018-08-08T16:05:20.474Z,31.20
2018-08-08T16:07:49.018Z,31.20
2018-08-08T16:10:17.679Z,31.30
2018-08-08T16:12:46.125Z,31.20
2018-08-08T16:15:14.669Z,31.20
2018-08-08T16:17:43.193Z,31.10
2018-08-08T16:20:11.702Z,31.10
2018-08-08T16:22:40.216Z,31.20
2018-08-08T16:25:08.662Z,31.40
2018-08-08T16:27:37.191Z,31.60
2018-08-08T16:30:06.687Z,31.80
2018-08-08T16:32:35.212Z,32.10
2018-08-08T16:35:03.745Z,32.20
2018-08-08T16:37:32.296Z,32.10
2018-08-08T16:40:00.769Z,31.80
2018-08-08T16:42:29.261Z,31.60
2018-08-08T16:44:57.821Z,31.50
2018-08-08T16:47:26.290Z,31.30
2018-08-08T16:49:54.751Z,31.10
2018-08-08T16:52:23.272Z,31.00
2018-08-08T16:54:51.737Z,30.80
2018-08-08T16:57:20.207Z,30.70
2018-08-08T16:59:48.735Z,30.50
2018-08-08T17:02:17.221Z,30.30
2018-08-08T17:04:45.768Z,30.10
2018-08-08T17:07:14.273Z,29.90
2018-08-08T17:09:42.717Z,29.70
2018-08-08T17:12:11.201Z,29.50
2018-08-08T17:14:39.961Z,29.30
2018-08-08T17:17:08.551Z,29.10
2018-08-08T17:19:37.070Z,28.90
2018-08-08T17:22:05.817Z,28.80
2018-08-08T17:24:34.399Z,28.60
2018-08-08T17:27:02.954Z,28.50
2018-08-08T17:29:31.477Z,28.30
2018-08-08T17:31:59.935Z,28.20
2018-08-08T17:34:28.410Z,28.10
2018-08-08T17:36:56.971Z,28.00
2018-08-08T17:39:25.421Z,27.90
2018-08-08T17:48:38.387Z,27.70
2018-08-08T17:51:06.890Z,27.50
2018-08-08T17:53:35.385Z,27.40
2018-08-08T17:56:03.862Z,27.30
2018-08-08T17:58:32.353Z,27.30
2018-08-08T18:01:01.244Z,27.20
2018-08-08T18:03:29.782Z,27.20
2018-08-08T18:05:58.284Z,27.20
2018-08-08T18:08:26.860Z,27.20
2018-08-08T18:10:55.357Z,27.20
2018-08-08T18:13:23.955Z,27.20
2018-08-08T18:15:52.405Z,27.20
2018-08-08T18:18:20.924Z,27.20
2018-08-08T18:20:49.415Z,27.20
2018-08-08T18:23:17.929Z,27.20
2018-08-08T18:25:46.401Z,27.20
2018-08-08T18:28:14.865Z,27.30
2018-08-08T18:30:43.420Z,27.20
2018-08-08T18:33:11.971Z,27.20
2018-08-08T18:35:40.457Z,27.20
2018-08-08T18:38:08.994Z,27.10
2018-08-08T18:40:37.474Z,27.10
2018-08-08T18:43:05.994Z,27.00
2018-08-08T18:45:34.473Z,26.90
2018-08-08T18:48:03.005Z,26.80
2018-08-08T18:50:31.680Z,26.80
2018-08-08T18:53:00.175Z,26.60
2018-08-08T18:55:28.693Z,26.50
2018-08-08T18:57:57.217Z,26.40
2018-08-08T19:00:25.682Z,26.30
2018-08-08T19:02:54.178Z,26.30
2018-08-08T19:05:22.686Z,26.20
2018-08-08T19:07:51.178Z,26.10
2018-08-08T19:10:19.690Z,26.10
2018-08-08T19:12:48.262Z,26.00
2018-08-08T19:15:16.713Z,26.00
2018-08-08T19:17:45.225Z,25.90
2018-08-08T19:20:13.980Z,25.90
2018-08-08T19:22:42.515Z,25.80
2018-08-08T19:25:11.059Z,25.70
2018-08-08T19:27:39.530Z,25.70
2018-08-08T19:30:10.634Z,25.70
2018-08-08T19:32:39.130Z,25.70
2018-08-08T19:35:07.586Z,25.70
2018-08-08T19:37:36.077Z,25.60
2018-08-08T19:40:04.841Z,25.60
2018-08-08T19:42:33.295Z,25.60
2018-08-08T19:45:01.731Z,25.60
2018-08-08T19:47:30.233Z,25.60
2018-08-08T19:49:58.700Z,25.60
2018-08-08T19:52:27.134Z,25.50
2018-08-08T19:54:55.691Z,25.50
2018-08-08T19:57:24.186Z,25.50
2018-08-08T19:59:52.670Z,25.50
2018-08-08T20:02:21.211Z,25.50
2018-08-08T20:04:49.762Z,25.50
2018-08-08T20:07:18.248Z,25.40
2018-08-08T20:15:34.157Z,25.40
2018-08-08T20:18:02.659Z,25.30
2018-08-08T20:20:31.108Z,25.30
2018-08-08T20:22:59.629Z,25.30
2018-08-08T20:25:28.147Z,25.30
2018-08-08T20:27:56.625Z,25.30
2018-08-08T20:30:25.132Z,25.20
2018-08-08T20:32:53.613Z,25.30
2018-08-08T20:35:22.101Z,25.20
2018-08-08T20:37:50.698Z,25.20
2018-08-08T20:40:19.197Z,25.20
2018-08-08T20:42:47.689Z,25.10
2018-08-08T20:45:16.223Z,25.10
2018-08-08T20:47:45.033Z,25.00
2018-08-08T20:50:13.481Z,25.00
2018-08-08T20:52:42.009Z,25.00
2018-08-08T20:55:10.449Z,24.90
2018-08-08T20:57:38.910Z,24.90
2018-08-08T21:00:07.441Z,24.80
2018-08-08T21:02:35.899Z,24.80
2018-08-08T21:05:04.545Z,24.70
2018-08-08T21:07:33.025Z,24.60
2018-08-08T21:10:01.567Z,24.50
2018-08-08T21:12:30.081Z,24.50
2018-08-08T21:14:58.625Z,24.40
2018-08-08T21:17:27.227Z,24.40
2018-08-08T21:19:55.725Z,24.40
2018-08-08T21:22:24.240Z,24.30
2018-08-08T21:24:52.698Z,24.20
2018-08-08T21:27:21.225Z,24.20
2018-08-08T21:29:49.716Z,24.20
2018-08-08T21:32:18.189Z,24.10
2018-08-08T21:34:46.682Z,24.10
2018-08-08T21:37:15.157Z,24.00
2018-08-08T21:39:43.629Z,24.00
2018-08-08T21:42:12.219Z,24.00
2018-08-08T21:44:40.847Z,23.90
2018-08-08T21:47:09.460Z,23.90
2018-08-08T21:49:37.995Z,23.90
2018-08-08T21:52:06.684Z,23.80
2018-08-08T21:54:46.509Z,23.80
2018-08-08T21:57:26.616Z,23.70
2018-08-08T22:00:06.330Z,23.60
2018-08-08T22:02:46.090Z,23.60
2018-08-08T22:05:25.781Z,23.60
2018-08-08T22:08:05.450Z,23.50
2018-08-08T22:12:51.636Z,23.50
2018-08-08T22:15:31.266Z,23.50
2018-08-08T22:18:10.870Z,23.40
2018-08-08T22:20:39.349Z,23.40
2018-08-08T22:23:07.813Z,23.30
2018-08-08T22:25:36.356Z,23.30
2018-08-08T22:28:04.845Z,23.30
2018-08-08T22:30:33.302Z,23.30
2018-08-08T22:33:01.800Z,23.20
2018-08-08T22:35:30.273Z,23.20
2018-08-08T22:37:58.755Z,23.20
2018-08-08T22:40:27.265Z,23.20
2018-08-08T22:42:55.815Z,23.20
2018-08-08T22:45:25.405Z,23.20
2018-08-08T22:47:53.968Z,23.20
2018-08-08T22:50:22.684Z,23.10
2018-08-08T22:52:51.169Z,23.10
2018-08-08T22:55:19.786Z,23.00
2018-08-08T22:57:48.268Z,23.00
2018-08-08T23:00:16.733Z,22.90
2018-08-08T23:02:45.256Z,22.90
2018-08-08T23:05:13.758Z,22.80
2018-08-08T23:07:42.361Z,22.80
2018-08-08T23:10:10.897Z,22.80
2018-08-08T23:12:39.348Z,22.70
2018-08-08T23:15:09.549Z,22.70
2018-08-08T23:17:38.366Z,22.60
2018-08-08T23:20:06.950Z,22.60
2018-08-08T23:22:46.661Z,22.60
2018-08-08T23:25:15.206Z,22.60
2018-08-08T23:27:43.724Z,22.50
2018-08-08T23:30:12.248Z,22.50
2018-08-08T23:32:40.725Z,22.50
2018-08-08T23:35:09.185Z,22.50
2018-08-08T23:37:38.064Z,22.50
2018-08-08T23:40:06.564Z,22.50
2018-08-08T23:42:35.164Z,22.40
2018-08-08T23:45:03.757Z,22.40
2018-08-08T23:47:32.247Z,22.40
2018-08-08T23:50:00.726Z,22.30
2018-08-08T23:52:29.232Z,22.30
2018-08-08T23:54:57.778Z,22.30
2018-08-08T23:57:26.270Z,22.20
2018-08-08T23:59:54.746Z,22.20
